createdAt,value
2023-01-12T01:03:57.547Z,102052.59
2023-01-12T01:06:45.004Z,102052.17
2023-01-12T01:09:32.436Z,102056.20
2023-01-12T01:12:19.831Z,102054.22
2023-01-12T01:15:07.871Z,102052.36
2023-01-12T01:17:55.289Z,102054.59
2023-01-12T01:20:47.016Z,102054.73
2023-01-12T01:23:35.310Z,102060.33
2023-01-12T01:26:23.269Z,102054.96
2023-01-12T01:29:10.864Z,102054.57
2023-01-12T01:31:58.275Z,102057.08
2023-01-12T01:34:47.119Z,102068.06
2023-01-12T01:37:34.553Z,102071.77
2023-01-12T01:40:22.005Z,102066.63
2023-01-12T01:43:14.011Z,102068.82
2023-01-12T01:46:09.759Z,102068.27
2023-01-12T01:48:58.066Z,102069.54
2023-01-12T01:51:45.743Z,102065.23
2023-01-12T01:54:36.400Z,102061.52
2023-01-12T01:57:24.806Z,102052.86
2023-01-12T02:00:12.593Z,102058.25
2023-01-12T02:03:00.033Z,102053.30
2023-01-12T02:05:48.578Z,102044.91
2023-01-12T02:08:49.414Z,102050.27
2023-01-12T02:11:55.579Z,102055.47
2023-01-12T02:15:02.248Z,102049.70
2023-01-12T02:18:11.590Z,102056.27
2023-01-12T02:21:05.081Z,102051.59
2023-01-12T02:24:07.231Z,102050.51
2023-01-12T02:27:13.502Z,102048.80
2023-01-12T02:30:38.933Z,102037.86
2023-01-12T02:33:41.603Z,102034.80
2023-01-12T02:36:37.719Z,102033.70
2023-01-12T02:39:30.171Z,102031.00
2023-01-12T02:42:49.611Z,102032.02
2023-01-12T02:45:43.026Z,102024.25
2023-01-12T02:48:34.950Z,102025.48
2023-01-12T02:51:32.154Z,102025.58
2023-01-12T02:54:20.325Z,102025.52
2023-01-12T02:57:08.314Z,102021.25
2023-01-12T02:59:55.787Z,102013.61
2023-01-12T03:02:43.284Z,102007.05
2023-01-12T03:05:30.748Z,102004.48
2023-01-12T03:08:21.183Z,101997.10
2023-01-12T03:11:15.886Z,101998.23
2023-01-12T03:14:03.319Z,101998.72
2023-01-12T03:16:50.771Z,101998.45
2023-01-12T03:19:38.179Z,101997.53
2023-01-12T03:22:25.624Z,101998.83
2023-01-12T03:25:14.161Z,101995.91
2023-01-12T03:28:03.153Z,101995.88
2023-01-12T03:31:11.108Z,101991.31
2023-01-12T03:33:58.692Z,101980.92
2023-01-12T03:36:48.956Z,101973.64
2023-01-12T03:39:50.798Z,101969.64
2023-01-12T03:43:15.694Z,101962.06
2023-01-12T03:46:08.483Z,101962.90
2023-01-12T03:49:03.070Z,101958.26
2023-01-12T03:51:50.549Z,101960.83
2023-01-12T03:54:38.435Z,101969.90
2023-01-12T03:57:26.160Z,101968.70
2023-01-12T07:05:09.847Z,101923.98
2023-01-12T07:07:59.393Z,101931.91
2023-01-12T07:10:46.888Z,101937.73
2023-01-12T07:13:34.419Z,101942.31
2023-01-12T07:16:21.927Z,101946.95
2023-01-12T07:19:09.489Z,101940.85
2023-01-12T07:21:56.902Z,101947.72
2023-01-12T07:24:44.286Z,101948.27
2023-01-12T07:27:31.763Z,101948.39
2023-01-12T07:30:21.355Z,101937.54
2023-01-12T07:33:10.191Z,101934.40
2023-01-12T07:35:59.186Z,101934.18
2023-01-12T07:38:46.901Z,101927.67
2023-01-12T07:41:54.184Z,101930.73
2023-01-12T07:44:43.519Z,101932.86
2023-01-12T07:47:30.996Z,101927.61
2023-01-12T07:50:18.443Z,101923.14
2023-01-12T07:53:05.879Z,101927.77
2023-01-12T07:55:53.346Z,101925.81
2023-01-12T07:58:40.831Z,101930.75
2023-01-12T08:01:28.386Z,101930.77
2023-01-12T08:04:16.023Z,101931.55
2023-01-12T08:07:03.602Z,101931.88
2023-01-12T08:09:51.075Z,101931.39
2023-01-12T08:12:38.749Z,101932.16
2023-01-12T08:15:26.195Z,101922.27
2023-01-12T08:18:18.783Z,101922.98
2023-01-12T08:21:10.052Z,101921.00
2023-01-12T08:23:58.940Z,101919.61
2023-01-12T08:26:46.740Z,101922.17
2023-01-12T08:29:40.161Z,101920.90
2023-01-12T08:32:28.178Z,101917.42
2023-01-12T08:35:18.165Z,101915.14
2023-01-12T08:38:05.615Z,101914.67
2023-01-12T08:41:11.672Z,101909.07
2023-01-12T08:44:09.175Z,101903.01
2023-01-12T08:46:56.682Z,101897.23
2023-01-12T08:49:45.892Z,101901.81
2023-01-12T08:52:33.342Z,101904.38
2023-01-12T08:55:20.803Z,101901.83
2023-01-12T08:58:08.222Z,101900.27
2023-01-12T09:00:55.883Z,101904.98
2023-01-12T09:03:44.497Z,101901.44
2023-01-12T09:06:35.275Z,101905.91
2023-01-12T09:09:22.902Z,101907.15
2023-01-12T09:12:10.401Z,101902.23
2023-01-12T09:14:57.864Z,101900.02
2023-01-12T09:17:45.378Z,101893.73
2023-01-12T09:20:34.212Z,101888.64
2023-01-12T09:23:21.679Z,101883.27
2023-01-12T09:26:14.315Z,101878.58
2023-01-12T09:29:02.567Z,101869.11
2023-01-12T09:31:50.086Z,101862.71
2023-01-12T09:34:37.799Z,101865.11
2023-01-12T09:37:26.100Z,101868.18
2023-01-12T09:40:14.616Z,101862.77
2023-01-12T09:43:20.621Z,101858.91
2023-01-12T09:46:56.680Z,101860.16
2023-01-12T09:49:46.362Z,101854.85
2023-01-12T09:52:36.872Z,101855.45
2023-01-12T09:55:26.015Z,101854.09
2023-01-12T13:07:42.705Z,101787.59
2023-01-12T13:10:30.216Z,101787.79
2023-01-12T13:13:37.353Z,101789.91
2023-01-12T13:16:45.829Z,101788.39
2023-01-12T13:19:36.206Z,101789.91
2023-01-12T13:22:29.836Z,101793.19
2023-01-12T13:25:17.327Z,101790.56
2023-01-12T13:28:04.731Z,101780.55
2023-01-12T13:30:53.284Z,101779.38
2023-01-12T13:33:40.722Z,101776.91
2023-01-12T13:36:31.537Z,101776.79
2023-01-12T13:39:18.990Z,101773.92
2023-01-12T13:42:38.745Z,101779.96
2023-01-12T13:45:26.183Z,101779.33
2023-01-12T13:48:13.564Z,101777.42
2023-01-12T13:51:07.563Z,101778.39
2023-01-12T13:53:59.459Z,101780.11
2023-01-12T13:56:56.347Z,101789.34
2023-01-12T14:00:09.105Z,101788.26
2023-01-12T14:03:03.191Z,101794.10
2023-01-12T14:06:02.113Z,101795.83
2023-01-12T14:08:52.575Z,101801.35
2023-01-12T14:12:17.525Z,101803.77
2023-01-12T14:15:56.606Z,101802.46
2023-01-12T14:18:45.678Z,101803.20
2023-01-12T14:21:38.096Z,101802.66
2023-01-12T14:24:25.667Z,101803.60
2023-01-12T14:27:23.333Z,101799.14
2023-01-12T14:30:13.874Z,101793.42
2023-01-12T14:33:01.521Z,101797.78
2023-01-12T14:35:50.427Z,101796.16
2023-01-12T14:38:40.492Z,101794.46
2023-01-12T14:41:55.317Z,101797.73
2023-01-12T14:45:11.902Z,101792.59
2023-01-12T14:48:25.898Z,101793.20
2023-01-12T14:51:23.946Z,101788.52
2023-01-12T14:54:11.331Z,101787.63
2023-01-12T14:57:03.859Z,101789.15
2023-01-12T14:59:51.420Z,101791.01
2023-01-12T15:02:40.288Z,101789.80
2023-01-12T15:05:29.091Z,101785.96
2023-01-12T15:08:31.187Z,101780.19
2023-01-12T15:11:28.806Z,101782.16
2023-01-12T15:14:27.601Z,101786.11
2023-01-12T15:17:33.651Z,101786.74
2023-01-12T15:20:39.713Z,101786.77
2023-01-12T15:23:47.805Z,101788.73
2023-01-12T15:26:35.263Z,101783.36
2023-01-12T15:29:22.760Z,101787.22
2023-01-12T15:32:46.182Z,101786.99
2023-01-12T15:35:44.452Z,101786.55
2023-01-12T15:38:31.890Z,101782.21
2023-01-12T15:41:44.233Z,101783.33
2023-01-12T15:44:31.674Z,101780.20
2023-01-12T15:47:19.580Z,101779.52
2023-01-12T15:50:07.555Z,101778.35
2023-01-12T15:52:56.631Z,101779.67
2023-01-12T15:55:44.081Z,101774.26
2023-01-12T15:58:31.758Z,101773.05
2023-01-12T19:05:34.803Z,101767.30
2023-01-12T19:08:40.905Z,101762.09
2023-01-12T19:11:28.323Z,101764.02
2023-01-12T19:14:34.352Z,101757.72
2023-01-12T19:17:27.837Z,101753.00
2023-01-12T19:20:16.139Z,101750.00
2023-01-12T19:23:22.393Z,101751.99
2023-01-12T19:26:28.937Z,101754.69
2023-01-12T19:29:16.545Z,101753.16
2023-01-12T19:32:04.282Z,101761.38
2023-01-12T19:34:56.275Z,101760.31
2023-01-12T19:37:48.032Z,101762.63
2023-01-12T19:40:59.184Z,101762.92
2023-01-12T19:43:46.869Z,101764.67
2023-01-12T19:46:35.084Z,101763.14
2023-01-12T19:49:22.704Z,101764.59
2023-01-12T19:52:10.902Z,101762.95
2023-01-12T19:54:58.362Z,101761.58
2023-01-12T19:57:45.905Z,101763.91
2023-01-12T20:00:36.016Z,101763.67
2023-01-12T20:03:24.013Z,101756.70
2023-01-12T20:06:11.459Z,101750.47
2023-01-12T20:08:59.111Z,101754.60
2023-01-12T20:11:52.655Z,101752.73
2023-01-12T20:14:40.115Z,101754.14
2023-01-12T20:17:27.736Z,101750.98
2023-01-12T20:20:15.598Z,101749.89
2023-01-12T20:23:03.103Z,101746.75
2023-01-12T20:25:50.728Z,101745.20
2023-01-12T20:28:38.359Z,101746.73
2023-01-12T20:31:25.995Z,101744.05
2023-01-12T20:34:14.044Z,101745.48
2023-01-12T20:37:03.125Z,101739.69
2023-01-12T20:39:53.350Z,101737.45
2023-01-12T20:42:41.442Z,101736.98
2023-01-12T20:45:29.030Z,101730.00
2023-01-12T20:48:16.486Z,101723.58
2023-01-12T20:51:07.530Z,101721.37
2023-01-12T20:53:55.629Z,101717.96
2023-01-12T20:56:43.082Z,101713.54
2023-01-12T20:59:30.644Z,101710.54
2023-01-12T21:02:23.459Z,101711.27
2023-01-12T21:05:10.868Z,101717.90
2023-01-12T21:08:07.373Z,101717.50
2023-01-12T21:10:55.652Z,101716.66
2023-01-12T21:13:43.247Z,101718.77
2023-01-12T21:16:31.463Z,101715.98
2023-01-12T21:19:19.174Z,101718.48
2023-01-12T21:22:06.658Z,101711.28
2023-01-12T21:24:54.023Z,101714.25
2023-01-12T21:27:41.643Z,101708.10
2023-01-12T21:30:29.138Z,101710.05
2023-01-12T21:33:17.762Z,101712.55
2023-01-12T21:36:05.569Z,101712.17
2023-01-12T21:38:53.372Z,101713.48
2023-01-12T21:41:59.379Z,101711.78
2023-01-12T21:44:46.794Z,101717.59
2023-01-12T21:47:34.275Z,101713.63
2023-01-12T21:50:22.316Z,101713.25
2023-01-12T21:53:13.382Z,101711.69
2023-01-12T21:56:02.203Z,101710.60
